Terminal Aerodrome Forecast
Issued by NWS El Paso, TX

Home | Current Version | Previous Version | Text Only | Print | Product List | Glossary On
Versions: 1 2 3 4 5 6 7 8 9 10 11 12 13
728
FTUS44 KEPZ 221720
TAFELP
TAF
KELP 221720Z 2218/2318 25008KT P6SM SKC
     FM230600 24011KT P6SM FEW250
     FM231600 25015G25KT P6SM SKC=

USA.gov is the U.S. government's official web portal to all federal, state and local government web resources and services.